sensor_id;sensor_type;location;lat;lon;timestamp;P1;durP1;ratioP1;P2;durP2;ratioP2
37535;SDS011;23379;51.554;6.736;2024-01-07T00:01:10;36.10;;;17.75;;
37535;SDS011;23379;51.554;6.736;2024-01-07T00:03:36;35.83;;;17.27;;
37535;SDS011;23379;51.554;6.736;2024-01-07T00:06:02;40.40;;;17.42;;
37535;SDS011;23379;51.554;6.736;2024-01-07T00:08:27;35.50;;;17.95;;
37535;SDS011;23379;51.554;6.736;2024-01-07T00:10:52;32.90;;;15.85;;
37535;SDS011;23379;51.554;6.736;2024-01-07T00:13:18;35.03;;;15.43;;
37535;SDS011;23379;51.554;6.736;2024-01-07T00:15:43;28.75;;;15.18;;
37535;SDS011;23379;51.554;6.736;2024-01-07T00:18:08;32.08;;;15.02;;
37535;SDS011;23379;51.554;6.736;2024-01-07T00:20:34;29.05;;;14.25;;
37535;SDS011;23379;51.554;6.736;2024-01-07T00:22:59;30.15;;;14.77;;
37535;SDS011;23379;51.554;6.736;2024-01-07T00:25:24;32.95;;;16.90;;
37535;SDS011;23379;51.554;6.736;2024-01-07T00:27:50;31.63;;;15.63;;
37535;SDS011;23379;51.554;6.736;2024-01-07T00:30:17;28.85;;;15.35;;
37535;SDS011;23379;51.554;6.736;2024-01-07T00:32:44;24.85;;;14.35;;
37535;SDS011;23379;51.554;6.736;2024-01-07T00:35:09;28.83;;;14.98;;
37535;SDS011;23379;51.554;6.736;2024-01-07T00:37:34;28.15;;;14.15;;
37535;SDS011;23379;51.554;6.736;2024-01-07T00:40:00;27.20;;;14.90;;
37535;SDS011;23379;51.554;6.736;2024-01-07T00:42:25;28.98;;;15.65;;
37535;SDS011;23379;51.554;6.736;2024-01-07T00:44:51;25.42;;;15.18;;
37535;SDS011;23379;51.554;6.736;2024-01-07T00:47:16;28.25;;;15.00;;
37535;SDS011;23379;51.554;6.736;2024-01-07T00:49:42;32.05;;;15.80;;
37535;SDS011;23379;51.554;6.736;2024-01-07T00:52:07;23.20;;;14.15;;
37535;SDS011;23379;51.554;6.736;2024-01-07T00:54:33;25.58;;;13.55;;
37535;SDS011;23379;51.554;6.736;2024-01-07T00:56:59;23.35;;;13.77;;
37535;SDS011;23379;51.554;6.736;2024-01-07T00:59:24;23.20;;;13.18;;
37535;SDS011;23379;51.554;6.736;2024-01-07T01:01:49;24.92;;;13.43;;
37535;SDS011;23379;51.554;6.736;2024-01-07T01:04:15;19.42;;;11.18;;
37535;SDS011;23379;51.554;6.736;2024-01-07T01:06:40;21.75;;;12.20;;
37535;SDS011;23379;51.554;6.736;2024-01-07T01:09:06;24.48;;;12.10;;
37535;SDS011;23379;51.554;6.736;2024-01-07T01:11:31;24.80;;;12.10;;
37535;SDS011;23379;51.554;6.736;2024-01-07T01:13:56;23.38;;;11.98;;
37535;SDS011;23379;51.554;6.736;2024-01-07T01:16:22;19.63;;;11.65;;
37535;SDS011;23379;51.554;6.736;2024-01-07T01:18:49;20.13;;;12.18;;
37535;SDS011;23379;51.554;6.736;2024-01-07T01:21:14;22.85;;;12.85;;
37535;SDS011;23379;51.554;6.736;2024-01-07T01:23:40;21.98;;;13.18;;
37535;SDS011;23379;51.554;6.736;2024-01-07T01:26:05;19.17;;;12.38;;
37535;SDS011;23379;51.554;6.736;2024-01-07T01:28:30;27.15;;;14.20;;
37535;SDS011;23379;51.554;6.736;2024-01-07T01:30:56;26.17;;;13.95;;
37535;SDS011;23379;51.554;6.736;2024-01-07T01:33:22;25.17;;;14.75;;
37535;SDS011;23379;51.554;6.736;2024-01-07T01:35:47;27.17;;;15.07;;
37535;SDS011;23379;51.554;6.736;2024-01-07T01:38:13;28.58;;;14.60;;
37535;SDS011;23379;51.554;6.736;2024-01-07T01:40:38;24.77;;;13.85;;
37535;SDS011;23379;51.554;6.736;2024-01-07T01:43:03;31.50;;;14.90;;
37535;SDS011;23379;51.554;6.736;2024-01-07T01:45:29;27.83;;;14.02;;
37535;SDS011;23379;51.554;6.736;2024-01-07T01:47:54;30.90;;;16.67;;
37535;SDS011;23379;51.554;6.736;2024-01-07T01:50:21;31.10;;;15.98;;
37535;SDS011;23379;51.554;6.736;2024-01-07T01:52:47;31.23;;;17.15;;
37535;SDS011;23379;51.554;6.736;2024-01-07T01:55:13;29.35;;;15.30;;
37535;SDS011;23379;51.554;6.736;2024-01-07T01:57:39;28.60;;;15.32;;
37535;SDS011;23379;51.554;6.736;2024-01-07T02:00:05;35.90;;;16.80;;
37535;SDS011;23379;51.554;6.736;2024-01-07T02:02:32;36.42;;;17.63;;
37535;SDS011;23379;51.554;6.736;2024-01-07T02:05:02;35.40;;;17.63;;
37535;SDS011;23379;51.554;6.736;2024-01-07T02:07:28;29.60;;;15.75;;
37535;SDS011;23379;51.554;6.736;2024-01-07T02:09:55;34.10;;;16.90;;
37535;SDS011;23379;51.554;6.736;2024-01-07T02:12:20;29.25;;;15.85;;
37535;SDS011;23379;51.554;6.736;2024-01-07T02:14:46;30.13;;;15.20;;
37535;SDS011;23379;51.554;6.736;2024-01-07T02:17:11;47.13;;;19.52;;
37535;SDS011;23379;51.554;6.736;2024-01-07T02:19:36;36.28;;;17.60;;
37535;SDS011;23379;51.554;6.736;2024-01-07T02:22:02;31.90;;;15.80;;
37535;SDS011;23379;51.554;6.736;2024-01-07T02:24:28;31.50;;;16.42;;
37535;SDS011;23379;51.554;6.736;2024-01-07T02:26:55;30.60;;;16.95;;
37535;SDS011;23379;51.554;6.736;2024-01-07T02:29:20;33.95;;;17.75;;
37535;SDS011;23379;51.554;6.736;2024-01-07T02:31:46;34.45;;;18.27;;
37535;SDS011;23379;51.554;6.736;2024-01-07T02:34:11;34.38;;;18.20;;
37535;SDS011;23379;51.554;6.736;2024-01-07T02:36:36;35.30;;;17.20;;
37535;SDS011;23379;51.554;6.736;2024-01-07T02:39:02;35.15;;;17.75;;
37535;SDS011;23379;51.554;6.736;2024-01-07T02:41:27;35.15;;;17.52;;
37535;SDS011;23379;51.554;6.736;2024-01-07T02:43:53;29.58;;;16.95;;
37535;SDS011;23379;51.554;6.736;2024-01-07T02:46:19;31.13;;;16.40;;
37535;SDS011;23379;51.554;6.736;2024-01-07T02:48:45;34.78;;;17.70;;
37535;SDS011;23379;51.554;6.736;2024-01-07T02:51:10;31.13;;;16.10;;
37535;SDS011;23379;51.554;6.736;2024-01-07T02:53:35;34.60;;;16.70;;
37535;SDS011;23379;51.554;6.736;2024-01-07T02:56:01;32.33;;;15.98;;
37535;SDS011;23379;51.554;6.736;2024-01-07T02:58:26;30.55;;;14.90;;
37535;SDS011;23379;51.554;6.736;2024-01-07T03:00:51;27.35;;;15.00;;
37535;SDS011;23379;51.554;6.736;2024-01-07T03:03:17;28.55;;;14.85;;
37535;SDS011;23379;51.554;6.736;2024-01-07T03:05:43;27.63;;;15.10;;
37535;SDS011;23379;51.554;6.736;2024-01-07T03:08:08;26.30;;;14.90;;
37535;SDS011;23379;51.554;6.736;2024-01-07T03:10:34;29.98;;;15.82;;
37535;SDS011;23379;51.554;6.736;2024-01-07T03:13:00;28.45;;;15.93;;
37535;SDS011;23379;51.554;6.736;2024-01-07T03:15:26;29.95;;;15.38;;
37535;SDS011;23379;51.554;6.736;2024-01-07T03:17:51;27.83;;;15.38;;
37535;SDS011;23379;51.554;6.736;2024-01-07T03:20:17;27.83;;;15.02;;
37535;SDS011;23379;51.554;6.736;2024-01-07T03:22:42;29.73;;;15.65;;
37535;SDS011;23379;51.554;6.736;2024-01-07T03:25:08;22.90;;;13.50;;
37535;SDS011;23379;51.554;6.736;2024-01-07T03:27:33;28.73;;;15.35;;
37535;SDS011;23379;51.554;6.736;2024-01-07T03:29:58;27.17;;;15.18;;
37535;SDS011;23379;51.554;6.736;2024-01-07T03:32:24;26.08;;;14.52;;
37535;SDS011;23379;51.554;6.736;2024-01-07T03:34:49;25.70;;;13.60;;
37535;SDS011;23379;51.554;6.736;2024-01-07T03:37:14;24.83;;;13.70;;
37535;SDS011;23379;51.554;6.736;2024-01-07T03:39:41;21.50;;;12.93;;
37535;SDS011;23379;51.554;6.736;2024-01-07T03:42:06;20.73;;;12.55;;
37535;SDS011;23379;51.554;6.736;2024-01-07T03:44:36;24.13;;;14.45;;
37535;SDS011;23379;51.554;6.736;2024-01-07T03:47:05;22.27;;;12.55;;
37535;SDS011;23379;51.554;6.736;2024-01-07T03:49:31;22.45;;;13.18;;
37535;SDS011;23379;51.554;6.736;2024-01-07T03:51:56;21.75;;;12.13;;
37535;SDS011;23379;51.554;6.736;2024-01-07T03:54:21;20.52;;;11.90;;
37535;SDS011;23379;51.554;6.736;2024-01-07T03:56:47;20.75;;;11.75;;
37535;SDS011;23379;51.554;6.736;2024-01-07T03:59:12;21.08;;;12.10;;
37535;SDS011;23379;51.554;6.736;2024-01-07T04:01:38;18.80;;;11.20;;
37535;SDS011;23379;51.554;6.736;2024-01-07T04:04:03;16.55;;;10.45;;
37535;SDS011;23379;51.554;6.736;2024-01-07T04:06:28;16.98;;;10.68;;
37535;SDS011;23379;51.554;6.736;2024-01-07T04:08:54;16.45;;;10.13;;
37535;SDS011;23379;51.554;6.736;2024-01-07T04:11:19;16.17;;;10.30;;
37535;SDS011;23379;51.554;6.736;2024-01-07T04:13:45;20.00;;;12.07;;
37535;SDS011;23379;51.554;6.736;2024-01-07T04:16:17;15.18;;;10.02;;
37535;SDS011;23379;51.554;6.736;2024-01-07T04:18:45;16.20;;;10.68;;
37535;SDS011;23379;51.554;6.736;2024-01-07T04:21:11;18.38;;;11.40;;
37535;SDS011;23379;51.554;6.736;2024-01-07T04:23:38;21.77;;;12.55;;
37535;SDS011;23379;51.554;6.736;2024-01-07T04:26:04;20.52;;;11.88;;
37535;SDS011;23379;51.554;6.736;2024-01-07T04:28:30;21.55;;;13.25;;
37535;SDS011;23379;51.554;6.736;2024-01-07T04:30:55;22.60;;;12.77;;
37535;SDS011;23379;51.554;6.736;2024-01-07T04:33:20;20.67;;;12.00;;
37535;SDS011;23379;51.554;6.736;2024-01-07T04:35:46;20.50;;;11.93;;
37535;SDS011;23379;51.554;6.736;2024-01-07T04:38:11;22.23;;;14.13;;
37535;SDS011;23379;51.554;6.736;2024-01-07T04:40:36;24.23;;;13.45;;
37535;SDS011;23379;51.554;6.736;2024-01-07T04:43:02;20.98;;;13.10;;
37535;SDS011;23379;51.554;6.736;2024-01-07T04:45:27;22.45;;;13.07;;
37535;SDS011;23379;51.554;6.736;2024-01-07T04:47:52;18.88;;;12.60;;
37535;SDS011;23379;51.554;6.736;2024-01-07T04:50:18;25.02;;;13.15;;
37535;SDS011;23379;51.554;6.736;2024-01-07T04:52:45;17.90;;;11.90;;
37535;SDS011;23379;51.554;6.736;2024-01-07T04:55:11;24.33;;;13.65;;
37535;SDS011;23379;51.554;6.736;2024-01-07T04:57:36;28.33;;;12.95;;
37535;SDS011;23379;51.554;6.736;2024-01-07T05:00:02;29.20;;;13.70;;
37535;SDS011;23379;51.554;6.736;2024-01-07T05:02:29;20.83;;;12.40;;
37535;SDS011;23379;51.554;6.736;2024-01-07T05:04:54;22.05;;;11.63;;
37535;SDS011;23379;51.554;6.736;2024-01-07T05:07:20;22.38;;;11.57;;
37535;SDS011;23379;51.554;6.736;2024-01-07T05:09:45;20.90;;;11.10;;
37535;SDS011;23379;51.554;6.736;2024-01-07T05:12:11;20.75;;;11.55;;
37535;SDS011;23379;51.554;6.736;2024-01-07T05:14:36;22.52;;;11.30;;
37535;SDS011;23379;51.554;6.736;2024-01-07T05:17:02;15.52;;;9.82;;
37535;SDS011;23379;51.554;6.736;2024-01-07T05:19:28;20.77;;;10.88;;
37535;SDS011;23379;51.554;6.736;2024-01-07T05:21:53;25.20;;;12.15;;
37535;SDS011;23379;51.554;6.736;2024-01-07T05:24:19;15.32;;;9.98;;
37535;SDS011;23379;51.554;6.736;2024-01-07T05:26:44;15.65;;;9.18;;
37535;SDS011;23379;51.554;6.736;2024-01-07T05:29:10;17.25;;;9.90;;
37535;SDS011;23379;51.554;6.736;2024-01-07T05:31:37;18.88;;;10.57;;
37535;SDS011;23379;51.554;6.736;2024-01-07T05:34:03;18.95;;;10.30;;
37535;SDS011;23379;51.554;6.736;2024-01-07T05:36:28;18.48;;;9.20;;
37535;SDS011;23379;51.554;6.736;2024-01-07T05:38:53;17.83;;;10.52;;
37535;SDS011;23379;51.554;6.736;2024-01-07T05:41:19;18.40;;;10.70;;
37535;SDS011;23379;51.554;6.736;2024-01-07T05:43:44;22.20;;;10.02;;
37535;SDS011;23379;51.554;6.736;2024-01-07T05:46:10;16.55;;;9.85;;
37535;SDS011;23379;51.554;6.736;2024-01-07T05:48:43;20.63;;;11.20;;
37535;SDS011;23379;51.554;6.736;2024-01-07T05:51:10;27.27;;;12.73;;
37535;SDS011;23379;51.554;6.736;2024-01-07T05:53:36;17.88;;;10.38;;
37535;SDS011;23379;51.554;6.736;2024-01-07T05:56:01;20.13;;;11.07;;
37535;SDS011;23379;51.554;6.736;2024-01-07T05:58:27;18.10;;;11.10;;
37535;SDS011;23379;51.554;6.736;2024-01-07T06:00:53;22.85;;;13.23;;
37535;SDS011;23379;51.554;6.736;2024-01-07T06:03:19;21.08;;;11.45;;
37535;SDS011;23379;51.554;6.736;2024-01-07T06:05:44;24.05;;;13.00;;
37535;SDS011;23379;51.554;6.736;2024-01-07T06:08:09;21.45;;;12.57;;
37535;SDS011;23379;51.554;6.736;2024-01-07T06:10:35;20.13;;;12.35;;
37535;SDS011;23379;51.554;6.736;2024-01-07T06:13:00;23.02;;;12.30;;
37535;SDS011;23379;51.554;6.736;2024-01-07T06:15:26;30.60;;;15.13;;
37535;SDS011;23379;51.554;6.736;2024-01-07T06:17:51;30.10;;;15.02;;
37535;SDS011;23379;51.554;6.736;2024-01-07T06:20:17;29.88;;;15.52;;
37535;SDS011;23379;51.554;6.736;2024-01-07T06:22:42;37.22;;;18.52;;
37535;SDS011;23379;51.554;6.736;2024-01-07T06:25:08;26.70;;;14.45;;
37535;SDS011;23379;51.554;6.736;2024-01-07T06:27:33;63.15;;;24.23;;
37535;SDS011;23379;51.554;6.736;2024-01-07T06:29:58;35.40;;;15.93;;
37535;SDS011;23379;51.554;6.736;2024-01-07T06:32:24;54.92;;;21.83;;
37535;SDS011;23379;51.554;6.736;2024-01-07T06:34:50;78.20;;;28.10;;
37535;SDS011;23379;51.554;6.736;2024-01-07T06:37:15;48.60;;;20.92;;
37535;SDS011;23379;51.554;6.736;2024-01-07T06:39:41;32.50;;;15.80;;
37535;SDS011;23379;51.554;6.736;2024-01-07T06:42:06;30.85;;;15.20;;
37535;SDS011;23379;51.554;6.736;2024-01-07T06:44:31;37.05;;;15.70;;
37535;SDS011;23379;51.554;6.736;2024-01-07T06:46:57;35.20;;;16.75;;
37535;SDS011;23379;51.554;6.736;2024-01-07T06:49:22;43.00;;;17.45;;
37535;SDS011;23379;51.554;6.736;2024-01-07T06:51:47;30.10;;;15.30;;
37535;SDS011;23379;51.554;6.736;2024-01-07T06:54:13;47.67;;;21.25;;
37535;SDS011;23379;51.554;6.736;2024-01-07T06:56:38;48.95;;;23.25;;
37535;SDS011;23379;51.554;6.736;2024-01-07T06:59:03;24.20;;;15.38;;
37535;SDS011;23379;51.554;6.736;2024-01-07T07:01:29;35.35;;;17.50;;
37535;SDS011;23379;51.554;6.736;2024-01-07T07:03:54;31.58;;;16.38;;
37535;SDS011;23379;51.554;6.736;2024-01-07T07:06:19;29.27;;;15.80;;
37535;SDS011;23379;51.554;6.736;2024-01-07T07:08:45;28.23;;;16.23;;
37535;SDS011;23379;51.554;6.736;2024-01-07T07:11:10;46.22;;;21.92;;
37535;SDS011;23379;51.554;6.736;2024-01-07T07:13:36;25.88;;;12.10;;
37535;SDS011;23379;51.554;6.736;2024-01-07T07:16:03;19.55;;;11.38;;
37535;SDS011;23379;51.554;6.736;2024-01-07T07:18:28;29.67;;;14.23;;
37535;SDS011;23379;51.554;6.736;2024-01-07T07:20:54;26.58;;;14.90;;
37535;SDS011;23379;51.554;6.736;2024-01-07T07:23:19;24.05;;;12.27;;
37535;SDS011;23379;51.554;6.736;2024-01-07T07:25:44;28.25;;;15.05;;
37535;SDS011;23379;51.554;6.736;2024-01-07T07:28:10;33.65;;;14.32;;
37535;SDS011;23379;51.554;6.736;2024-01-07T07:30:36;27.70;;;13.38;;
37535;SDS011;23379;51.554;6.736;2024-01-07T07:33:01;36.75;;;16.15;;
37535;SDS011;23379;51.554;6.736;2024-01-07T07:35:27;24.50;;;12.20;;
37535;SDS011;23379;51.554;6.736;2024-01-07T07:37:53;25.75;;;12.68;;
37535;SDS011;23379;51.554;6.736;2024-01-07T07:40:18;25.73;;;13.32;;
37535;SDS011;23379;51.554;6.736;2024-01-07T07:42:44;20.48;;;11.52;;
37535;SDS011;23379;51.554;6.736;2024-01-07T07:45:09;24.05;;;12.18;;
37535;SDS011;23379;51.554;6.736;2024-01-07T07:47:35;27.63;;;13.52;;
37535;SDS011;23379;51.554;6.736;2024-01-07T07:50:00;23.75;;;12.65;;
37535;SDS011;23379;51.554;6.736;2024-01-07T07:52:27;25.23;;;11.65;;
37535;SDS011;23379;51.554;6.736;2024-01-07T07:54:52;34.88;;;14.15;;
37535;SDS011;23379;51.554;6.736;2024-01-07T07:57:18;19.00;;;11.25;;
37535;SDS011;23379;51.554;6.736;2024-01-07T07:59:45;21.20;;;11.20;;
37535;SDS011;23379;51.554;6.736;2024-01-07T08:02:11;27.73;;;12.55;;
37535;SDS011;23379;51.554;6.736;2024-01-07T08:04:37;28.83;;;13.50;;
37535;SDS011;23379;51.554;6.736;2024-01-07T08:07:06;50.33;;;21.33;;
37535;SDS011;23379;51.554;6.736;2024-01-07T08:09:31;42.65;;;19.25;;
37535;SDS011;23379;51.554;6.736;2024-01-07T08:11:56;20.40;;;12.35;;
37535;SDS011;23379;51.554;6.736;2024-01-07T08:14:22;21.48;;;12.70;;
37535;SDS011;23379;51.554;6.736;2024-01-07T08:16:47;25.17;;;14.73;;
37535;SDS011;23379;51.554;6.736;2024-01-07T08:19:12;75.28;;;26.23;;
37535;SDS011;23379;51.554;6.736;2024-01-07T08:21:38;102.18;;;32.83;;
37535;SDS011;23379;51.554;6.736;2024-01-07T08:24:03;135.30;;;40.35;;
37535;SDS011;23379;51.554;6.736;2024-01-07T08:26:29;67.28;;;23.98;;
37535;SDS011;23379;51.554;6.736;2024-01-07T08:28:54;35.30;;;16.55;;
37535;SDS011;23379;51.554;6.736;2024-01-07T08:31:19;39.50;;;17.90;;
37535;SDS011;23379;51.554;6.736;2024-01-07T08:33:45;68.75;;;24.35;;
37535;SDS011;23379;51.554;6.736;2024-01-07T08:36:10;45.08;;;17.70;;
37535;SDS011;23379;51.554;6.736;2024-01-07T08:38:35;37.30;;;14.93;;
37535;SDS011;23379;51.554;6.736;2024-01-07T08:41:01;33.03;;;15.48;;
37535;SDS011;23379;51.554;6.736;2024-01-07T08:43:26;58.40;;;21.38;;
37535;SDS011;23379;51.554;6.736;2024-01-07T08:45:51;28.35;;;14.43;;
37535;SDS011;23379;51.554;6.736;2024-01-07T08:48:17;26.80;;;13.38;;
37535;SDS011;23379;51.554;6.736;2024-01-07T08:50:42;20.90;;;11.98;;
37535;SDS011;23379;51.554;6.736;2024-01-07T08:53:08;24.05;;;12.70;;
37535;SDS011;23379;51.554;6.736;2024-01-07T08:55:33;23.65;;;13.07;;
37535;SDS011;23379;51.554;6.736;2024-01-07T08:57:59;26.42;;;12.73;;
37535;SDS011;23379;51.554;6.736;2024-01-07T09:00:24;28.80;;;14.13;;
37535;SDS011;23379;51.554;6.736;2024-01-07T09:02:52;25.63;;;13.65;;
37535;SDS011;23379;51.554;6.736;2024-01-07T09:05:18;33.95;;;15.25;;
37535;SDS011;23379;51.554;6.736;2024-01-07T09:07:43;19.35;;;10.07;;
37535;SDS011;23379;51.554;6.736;2024-01-07T09:10:09;37.75;;;16.25;;
37535;SDS011;23379;51.554;6.736;2024-01-07T09:12:38;14.80;;;9.27;;
37535;SDS011;23379;51.554;6.736;2024-01-07T09:15:04;16.13;;;9.07;;
37535;SDS011;23379;51.554;6.736;2024-01-07T09:17:36;11.82;;;8.77;;
37535;SDS011;23379;51.554;6.736;2024-01-07T09:20:06;20.35;;;10.93;;
37535;SDS011;23379;51.554;6.736;2024-01-07T09:22:33;11.32;;;7.70;;
37535;SDS011;23379;51.554;6.736;2024-01-07T09:25:00;17.00;;;10.20;;
37535;SDS011;23379;51.554;6.736;2024-01-07T09:27:28;19.13;;;10.60;;
37535;SDS011;23379;51.554;6.736;2024-01-07T09:29:54;11.07;;;8.68;;
37535;SDS011;23379;51.554;6.736;2024-01-07T09:32:20;13.88;;;8.90;;
37535;SDS011;23379;51.554;6.736;2024-01-07T09:34:46;13.93;;;8.60;;
37535;SDS011;23379;51.554;6.736;2024-01-07T09:37:11;14.95;;;8.60;;
37535;SDS011;23379;51.554;6.736;2024-01-07T09:39:40;11.25;;;8.45;;
37535;SDS011;23379;51.554;6.736;2024-01-07T09:42:18;23.35;;;12.95;;
37535;SDS011;23379;51.554;6.736;2024-01-07T09:44:44;23.55;;;12.93;;
37535;SDS011;23379;51.554;6.736;2024-01-07T09:47:14;40.08;;;18.80;;
37535;SDS011;23379;51.554;6.736;2024-01-07T09:49:40;43.67;;;18.65;;
37535;SDS011;23379;51.554;6.736;2024-01-07T09:52:05;25.60;;;12.00;;
37535;SDS011;23379;51.554;6.736;2024-01-07T09:54:32;20.75;;;9.65;;
37535;SDS011;23379;51.554;6.736;2024-01-07T09:57:00;43.38;;;16.27;;
37535;SDS011;23379;51.554;6.736;2024-01-07T09:59:27;11.50;;;7.80;;
37535;SDS011;23379;51.554;6.736;2024-01-07T10:01:53;28.08;;;12.88;;
37535;SDS011;23379;51.554;6.736;2024-01-07T10:04:20;20.98;;;11.70;;
37535;SDS011;23379;51.554;6.736;2024-01-07T10:06:45;11.73;;;7.50;;
37535;SDS011;23379;51.554;6.736;2024-01-07T10:09:11;11.73;;;7.47;;
37535;SDS011;23379;51.554;6.736;2024-01-07T10:11:37;9.63;;;6.80;;
37535;SDS011;23379;51.554;6.736;2024-01-07T10:14:04;17.25;;;9.63;;
37535;SDS011;23379;51.554;6.736;2024-01-07T10:16:29;17.90;;;8.82;;
37535;SDS011;23379;51.554;6.736;2024-01-07T10:18:54;17.55;;;9.10;;
37535;SDS011;23379;51.554;6.736;2024-01-07T10:21:20;45.13;;;18.02;;
37535;SDS011;23379;51.554;6.736;2024-01-07T10:23:45;28.58;;;13.70;;
37535;SDS011;23379;51.554;6.736;2024-01-07T10:26:11;18.85;;;10.05;;
37535;SDS011;23379;51.554;6.736;2024-01-07T10:28:36;26.25;;;11.20;;
37535;SDS011;23379;51.554;6.736;2024-01-07T10:31:03;17.80;;;9.18;;
37535;SDS011;23379;51.554;6.736;2024-01-07T10:33:31;14.77;;;8.70;;
37535;SDS011;23379;51.554;6.736;2024-01-07T10:36:01;21.17;;;9.82;;
37535;SDS011;23379;51.554;6.736;2024-01-07T10:38:30;32.25;;;15.40;;
37535;SDS011;23379;51.554;6.736;2024-01-07T10:40:56;19.27;;;9.10;;
37535;SDS011;23379;51.554;6.736;2024-01-07T10:43:24;44.85;;;16.77;;
37535;SDS011;23379;51.554;6.736;2024-01-07T10:45:53;22.20;;;10.27;;
37535;SDS011;23379;51.554;6.736;2024-01-07T10:48:20;10.38;;;6.97;;
37535;SDS011;23379;51.554;6.736;2024-01-07T10:50:46;19.02;;;9.18;;
37535;SDS011;23379;51.554;6.736;2024-01-07T10:53:17;17.30;;;8.15;;
37535;SDS011;23379;51.554;6.736;2024-01-07T10:58:33;20.33;;;10.63;;
37535;SDS011;23379;51.554;6.736;2024-01-07T11:00:59;25.90;;;12.55;;
37535;SDS011;23379;51.554;6.736;2024-01-07T11:08:35;12.27;;;6.47;;
37535;SDS011;23379;51.554;6.736;2024-01-07T11:11:07;12.02;;;6.32;;
37535;SDS011;23379;51.554;6.736;2024-01-07T11:13:40;32.70;;;15.07;;
37535;SDS011;23379;51.554;6.736;2024-01-07T11:16:06;23.35;;;12.00;;
37535;SDS011;23379;51.554;6.736;2024-01-07T11:18:39;17.52;;;9.93;;
37535;SDS011;23379;51.554;6.736;2024-01-07T11:21:27;24.85;;;12.60;;
37535;SDS011;23379;51.554;6.736;2024-01-07T11:23:52;29.90;;;10.45;;
37535;SDS011;23379;51.554;6.736;2024-01-07T11:26:21;10.55;;;6.30;;
37535;SDS011;23379;51.554;6.736;2024-01-07T11:31:18;13.05;;;7.30;;
37535;SDS011;23379;51.554;6.736;2024-01-07T11:33:48;9.32;;;6.47;;
37535;SDS011;23379;51.554;6.736;2024-01-07T11:36:17;8.20;;;5.05;;
37535;SDS011;23379;51.554;6.736;2024-01-07T11:38:44;17.23;;;9.10;;
37535;SDS011;23379;51.554;6.736;2024-01-07T11:41:13;8.15;;;5.35;;
37535;SDS011;23379;51.554;6.736;2024-01-07T11:43:58;12.88;;;6.63;;
37535;SDS011;23379;51.554;6.736;2024-01-07T11:46:28;5.68;;;4.22;;
37535;SDS011;23379;51.554;6.736;2024-01-07T11:48:56;4.43;;;3.60;;
37535;SDS011;23379;51.554;6.736;2024-01-07T11:51:28;12.20;;;7.40;;
37535;SDS011;23379;51.554;6.736;2024-01-07T11:53:58;5.55;;;4.82;;
37535;SDS011;23379;51.554;6.736;2024-01-07T11:56:24;5.88;;;3.78;;
37535;SDS011;23379;51.554;6.736;2024-01-07T11:58:51;7.28;;;4.90;;
37535;SDS011;23379;51.554;6.736;2024-01-07T12:01:16;7.35;;;3.85;;
37535;SDS011;23379;51.554;6.736;2024-01-07T12:03:45;8.93;;;6.22;;
37535;SDS011;23379;51.554;6.736;2024-01-07T12:06:10;9.23;;;5.95;;
37535;SDS011;23379;51.554;6.736;2024-01-07T12:08:40;7.55;;;4.55;;
37535;SDS011;23379;51.554;6.736;2024-01-07T12:11:06;6.15;;;4.70;;
37535;SDS011;23379;51.554;6.736;2024-01-07T12:13:32;6.18;;;4.95;;
37535;SDS011;23379;51.554;6.736;2024-01-07T12:15:58;6.50;;;4.68;;
37535;SDS011;23379;51.554;6.736;2024-01-07T12:18:23;10.10;;;6.28;;
37535;SDS011;23379;51.554;6.736;2024-01-07T12:20:54;7.15;;;4.82;;
37535;SDS011;23379;51.554;6.736;2024-01-07T12:23:21;9.05;;;5.30;;
37535;SDS011;23379;51.554;6.736;2024-01-07T12:25:46;8.13;;;5.72;;
37535;SDS011;23379;51.554;6.736;2024-01-07T12:30:57;9.10;;;6.35;;
37535;SDS011;23379;51.554;6.736;2024-01-07T12:33:23;10.07;;;6.03;;
37535;SDS011;23379;51.554;6.736;2024-01-07T12:35:50;8.50;;;5.85;;
37535;SDS011;23379;51.554;6.736;2024-01-07T12:38:16;8.73;;;5.20;;
37535;SDS011;23379;51.554;6.736;2024-01-07T12:40:49;7.93;;;5.75;;
37535;SDS011;23379;51.554;6.736;2024-01-07T12:43:14;10.25;;;5.10;;
37535;SDS011;23379;51.554;6.736;2024-01-07T12:45:40;6.57;;;5.03;;
37535;SDS011;23379;51.554;6.736;2024-01-07T12:48:06;105.85;;;33.60;;
37535;SDS011;23379;51.554;6.736;2024-01-07T12:50:31;10.38;;;5.78;;
37535;SDS011;23379;51.554;6.736;2024-01-07T12:52:57;28.10;;;11.93;;
37535;SDS011;23379;51.554;6.736;2024-01-07T12:55:24;33.45;;;13.80;;
37535;SDS011;23379;51.554;6.736;2024-01-07T12:57:50;10.57;;;6.50;;
37535;SDS011;23379;51.554;6.736;2024-01-07T13:00:17;9.32;;;5.15;;
37535;SDS011;23379;51.554;6.736;2024-01-07T13:02:43;4.07;;;3.67;;
37535;SDS011;23379;51.554;6.736;2024-01-07T13:05:08;5.07;;;3.90;;
37535;SDS011;23379;51.554;6.736;2024-01-07T13:07:34;8.73;;;5.00;;
37535;SDS011;23379;51.554;6.736;2024-01-07T13:10:00;6.25;;;4.18;;
37535;SDS011;23379;51.554;6.736;2024-01-07T13:12:25;19.02;;;9.52;;
37535;SDS011;23379;51.554;6.736;2024-01-07T13:14:51;11.57;;;5.97;;
37535;SDS011;23379;51.554;6.736;2024-01-07T13:17:18;28.20;;;10.63;;
37535;SDS011;23379;51.554;6.736;2024-01-07T13:19:43;31.88;;;13.27;;
37535;SDS011;23379;51.554;6.736;2024-01-07T13:22:09;16.88;;;9.10;;
37535;SDS011;23379;51.554;6.736;2024-01-07T13:24:35;24.30;;;11.52;;
37535;SDS011;23379;51.554;6.736;2024-01-07T13:27:01;31.33;;;14.75;;
37535;SDS011;23379;51.554;6.736;2024-01-07T13:29:26;18.48;;;8.65;;
37535;SDS011;23379;51.554;6.736;2024-01-07T13:31:52;24.73;;;10.75;;
37535;SDS011;23379;51.554;6.736;2024-01-07T13:34:17;15.93;;;7.72;;
37535;SDS011;23379;51.554;6.736;2024-01-07T13:36:43;23.38;;;10.23;;
37535;SDS011;23379;51.554;6.736;2024-01-07T13:39:09;28.58;;;12.55;;
37535;SDS011;23379;51.554;6.736;2024-01-07T13:41:34;8.90;;;4.40;;
37535;SDS011;23379;51.554;6.736;2024-01-07T13:44:00;7.22;;;5.60;;
37535;SDS011;23379;51.554;6.736;2024-01-07T13:46:27;11.52;;;5.80;;
37535;SDS011;23379;51.554;6.736;2024-01-07T13:48:53;16.83;;;7.03;;
37535;SDS011;23379;51.554;6.736;2024-01-07T13:51:18;6.05;;;4.10;;
37535;SDS011;23379;51.554;6.736;2024-01-07T13:53:44;9.00;;;5.03;;
37535;SDS011;23379;51.554;6.736;2024-01-07T13:56:11;10.63;;;4.60;;
37535;SDS011;23379;51.554;6.736;2024-01-07T13:58:36;7.15;;;4.15;;
37535;SDS011;23379;51.554;6.736;2024-01-07T14:01:02;7.32;;;4.43;;
37535;SDS011;23379;51.554;6.736;2024-01-07T14:03:28;4.43;;;2.97;;
37535;SDS011;23379;51.554;6.736;2024-01-07T14:05:55;5.35;;;3.63;;
37535;SDS011;23379;51.554;6.736;2024-01-07T14:08:21;3.13;;;2.90;;
37535;SDS011;23379;51.554;6.736;2024-01-07T14:10:46;6.18;;;3.60;;
37535;SDS011;23379;51.554;6.736;2024-01-07T14:13:12;5.57;;;3.97;;
37535;SDS011;23379;51.554;6.736;2024-01-07T14:15:37;4.07;;;3.50;;
37535;SDS011;23379;51.554;6.736;2024-01-07T14:18:02;4.38;;;2.88;;
37535;SDS011;23379;51.554;6.736;2024-01-07T14:20:28;4.13;;;3.25;;
37535;SDS011;23379;51.554;6.736;2024-01-07T14:22:54;4.72;;;3.28;;
37535;SDS011;23379;51.554;6.736;2024-01-07T14:25:19;4.20;;;3.00;;
37535;SDS011;23379;51.554;6.736;2024-01-07T14:27:45;3.58;;;2.90;;
37535;SDS011;23379;51.554;6.736;2024-01-07T14:30:10;3.50;;;2.90;;
37535;SDS011;23379;51.554;6.736;2024-01-07T14:32:36;4.22;;;2.92;;